Rosaria Lauro — IXXO — position and weather

sailwx.info

Track history (hours):
 
Tides and Currents Weather Stations Pressure Air Temp Water Temp Dewpoint Dewpoint Depression Visibility Wind Speed Wind Dir Waves Ship Positions

Rosaria Lauro

Last reported at 2014-Jul-29 16:34 UTC. Time now 2014-Jul-29 20:51 UTC.
Position N 40°46' E 013°52'.

Length 40 m; draft 1.5 m.

Type: Passenger vessel. MMSI: 247055900.

Date/timePositionNaut miles runAvg speedWind from/ knotsBaromVisibWave heightAir tempDewpointWater temp
2014-Jul-29 16:34N 40°46' E 013°52'1817.5
2014-Jul-29 15:31N 40°50' E 014°15'1919.7
2014-Jul-29 14:33N 40°44' E 013°52'4 3.7
2014-Jul-29 13:34N 40°45' E 013°56'1610.9
2014-Jul-29 12:04N 40°50' E 014°17'1222.7
2014-Jul-29 11:34N 40°46' E 014°02'8 8.1
2014-Jul-29 10:33N 40°44' E 013°52'9 9.3
2014-Jul-29 09:34N 40°46' E 014°04'10 9.8
2014-Jul-29 08:30N 40°50' E 014°16'1616.6
2014-Jul-29 07:34N 40°45' E 013°57'1211.5
2014-Jul-29 06:33N 40°47' E 014°12'4 3.8
2014-Jul-29 05:34N 40°46' E 014°07'1211.6
2014-Jul-29 04:34N 40°44' E 013°52'0 0.0
2014-Jul-28 16:34N 40°45' E 013°52'2016.6
2014-Jul-28 15:22N 40°50' E 014°17'2024.6
2014-Jul-28 14:33N 40°45' E 013°52'4 3.6
2014-Jul-28 13:34N 40°45' E 013°56'1611.2
2014-Jul-28 12:07N 40°50' E 014°17'1323.0
2014-Jul-28 11:33N 40°44' E 014°01'7 7.0
2014-Jul-28 10:34N 40°46' E 013°52'15 7.6
2014-Jul-28 08:33N 40°47' E 014°12'1616.1
2014-Jul-28 07:33N 40°44' E 013°52'2013.8
2014-Jul-28 06:07N 40°50' E 014°17'1221.4
2014-Jul-28 05:34N 40°46' E 014°01'8 7.7
2014-Jul-28 04:33N 40°44' E 013°52'0 0.0
2014-Jul-27 19:32N 40°44' E 013°52'2015.1
2014-Jul-27 18:13N 40°50' E 014°17'1421.1
2014-Jul-27 17:34N 40°44' E 014°00'1 0.7
2014-Jul-27 16:34N 40°44' E 014°01'1312.8
2014-Jul-27 15:32N 40°50' E 014°17'2020.1
2014-Jul-27 14:33N 40°45' E 013°52'4 4.3
2014-Jul-27 13:34N 40°45' E 013°57'1612.1
2014-Jul-27 12:16N 40°50' E 014°17'1520.9
2014-Jul-27 11:34N 40°44' E 013°58'5 5.2
2014-Jul-27 10:34N 40°44' E 013°52'1312.8
2014-Jul-27 09:34N 40°47' E 014°08'7 6.4
2014-Jul-27 08:29N 40°50' E 014°16'1617.2
2014-Jul-27 07:34N 40°45' E 013°56'4 3.6
2014-Jul-27 06:33N 40°44' E 013°52'4 0.4
2014-Jul-26 18:34N 40°45' E 013°57'1414.4
2014-Jul-26 17:33N 40°49' E 014°16'1818.4
2014-Jul-26 16:34N 40°46' E 013°52'1916.5
2014-Jul-26 15:23N 40°50' E 014°17'2023.9
2014-Jul-26 14:33N 40°45' E 013°52'4 3.7
2014-Jul-26 13:34N 40°45' E 013°56'1611.6
2014-Jul-26 12:10N 40°50' E 014°16'1321.7
2014-Jul-26 11:34N 40°44' E 014°00'7 6.7
2014-Jul-26 10:33N 40°44' E 013°52'1413.7
2014-Jul-26 09:34N 40°46' E 014°09'5 5.0
2014-Jul-26 08:33N 40°48' E 014°16'1818.4
2014-Jul-26 07:34N 40°45' E 013°52'1717.0
2014-Jul-26 06:33N 40°48' E 014°14'7 7.2
2014-Jul-26 05:34N 40°45' E 014°05'1010.2
2014-Jul-26 04:33N 40°44' E 013°52'0 0.0
2014-Jul-25 19:09N 40°44' E 013°52'1219.9
2014-Jul-25 18:34N 40°46' E 014°07'3 2.8
2014-Jul-25 17:34N 40°47' E 014°11'1212.2
2014-Jul-25 16:34N 40°46' E 013°54'1713.9
2014-Jul-25 15:20N 40°50' E 014°16'1924.8
2014-Jul-25 14:34N 40°45' E 013°51'4 3.7
2014-Jul-25 13:34N 40°45' E 013°56'1610.7
2014-Jul-25 12:04N 40°50' E 014°16'1121.4
2014-Jul-25 11:34N 40°46' E 014°02'8 8.5
2014-Jul-25 10:33N 40°44' E 013°52'7 7.2
2014-Jul-25 09:34N 40°46' E 014°01'1210.0
2014-Jul-25 08:19N 40°50' E 014°16'1824.0
2014-Jul-25 07:33N 40°46' E 013°53'1817.8
2014-Jul-25 06:31N 40°49' E 014°17'1010.6
2014-Jul-25 05:34N 40°46' E 014°04'9 9.3
2014-Jul-25 04:33N 40°44' E 013°52'1 0.0
2014-Jul-24 16:33N 40°45' E 013°51'1916.2
2014-Jul-24 15:21N 40°50' E 014°16'1924.3
2014-Jul-24 14:34N 40°45' E 013°51'4 3.7
2014-Jul-24 13:33N 40°45' E 013°56'1611.2
2014-Jul-24 12:07N 40°50' E 014°16'1322.6
2014-Jul-24 11:34N 40°46' E 014°00'7 6.9
2014-Jul-24 10:33N 40°44' E 013°52'1110.7
2014-Jul-24 09:34N 40°46' E 014°05'9 8.7
2014-Jul-24 08:31N 40°50' E 014°16'1717.4
2014-Jul-24 07:34N 40°46' E 013°55'1414.2
2014-Jul-24 06:33N 40°48' E 014°14'7 7.2
2014-Jul-24 05:34N 40°46' E 014°05'1010.1
2014-Jul-24 04:33N 40°44' E 013°52'0 0.0
2014-Jul-23 17:04N 40°44' E 013°52'0 0.0
2014-Jul-23 16:33N 40°44' E 013°52'2016.5
2014-Jul-23 15:22N 40°50' E 014°16'2024.0
2014-Jul-23 14:34N 40°45' E 013°52'4 3.6
2014-Jul-23 13:33N 40°45' E 013°56'1610.9
2014-Jul-23 12:05N 40°50' E 014°16'1121.6
2014-Jul-23 11:34N 40°46' E 014°02'8 8.1
2014-Jul-23 10:33N 40°44' E 013°52'1010.4
2014-Jul-23 09:33N 40°46' E 014°05'9 9.3
2014-Jul-23 08:33N 40°50' E 014°17'1616.3
2014-Jul-23 07:34N 40°45' E 013°56'1111.3
2014-Jul-23 06:33N 40°47' E 014°11'3 2.8
2014-Jul-23 05:34N 40°46' E 014°08'1212.2
2014-Jul-23 04:33N 40°44' E 013°52'4 0.3
2014-Jul-22 14:21N 40°45' E 013°56'0 0.1
2014-Jul-22 13:34N 40°45' E 013°56'1611.2
2014-Jul-22 12:08N 40°50' E 014°16'1221.8
2014-Jul-22 11:34N 40°44' E 014°02'4 3.9
2014-Jul-22 10:33N 40°45' E 013°56'1515.1
2014-Jul-22 09:33N 40°49' E 014°16'7 6.9
2014-Jul-22 08:33N 40°46' E 014°07'1211.9
2014-Jul-22 07:32N 40°44' E 013°52'10 4.8
2014-Jul-22 05:34N 40°45' E 014°04'10 9.6
2014-Jul-22 04:33N 40°44' E 013°52'2 0.2
2014-Jul-21 16:34N 40°46' E 013°53'1815.3
2014-Jul-21 15:24N 40°50' E 014°16'1922.9
2014-Jul-21 14:33N 40°45' E 013°52'4 3.6
2014-Jul-21 13:33N 40°45' E 013°56'1611.6
2014-Jul-21 12:11N 40°50' E 014°16'1320.3
2014-Jul-21 11:34N 40°46' E 014°00'7 6.8
2014-Jul-21 10:34N 40°44' E 013°52'1414.1
2014-Jul-21 09:34N 40°47' E 014°10'5 4.7
2014-Jul-21 08:34N 40°48' E 014°16'1918.7
2014-Jul-21 07:34N 40°45' E 013°51'2019.6
2014-Jul-21 06:33N 40°49' E 014°17'1111.3
2014-Jul-21 05:34N 40°46' E 014°02'8 8.4
2014-Jul-21 04:33N 40°44' E 013°52'0 0.0
2014-Jul-20 19:33N 40°44' E 013°52'1818.5
2014-Jul-20 18:34N 40°48' E 014°15'1110.8
2014-Jul-20 17:34N 40°45' E 014°02'0 0.2
2014-Jul-20 16:33N 40°44' E 014°02'1212.4
2014-Jul-20 15:34N 40°50' E 014°16'2019.2
2014-Jul-20 14:32N 40°44' E 013°52'4 3.7
2014-Jul-20 13:33N 40°45' E 013°56'1515.4
2014-Jul-20 12:34N 40°50' E 014°15'1413.5
2014-Jul-20 11:33N 40°44' E 013°59'6 5.9
2014-Jul-20 10:33N 40°44' E 013°52'1010.3
2014-Jul-20 09:33N 40°45' E 014°05'10 8.6
2014-Jul-20 08:26N 40°50' E 014°16'1618.2
2014-Jul-20 07:34N 40°45' E 013°56'4 3.6
2014-Jul-20 06:33N 40°44' E 013°52'5 0.4
2014-Jul-19 18:34N 40°45' E 013°58'1413.6
2014-Jul-19 17:33N 40°48' E 014°15'  
Track history (hours):
 
Tides and Currents Weather Stations Pressure Air Temp Water Temp Dewpoint Dewpoint Depression Visibility Wind Speed Wind Dir Waves Ship Positions

Rosaria Lauro

Last reported at 2014-Jul-29 16:34 UTC. Time now 2014-Jul-29 20:51 UTC.
Position N 40°46' E 013°52'.

Length 40 m; draft 1.5 m.

Type: Passenger vessel. MMSI: 247055900.

Date/timePositionNaut miles runAvg speedWind from/ knotsBaromVisibWave heightAir tempDewpointWater temp
2014-Jul-29 16:34N 40°46' E 013°52'1817.5
2014-Jul-29 15:31N 40°50' E 014°15'1919.7
2014-Jul-29 14:33N 40°44' E 013°52'4 3.7
2014-Jul-29 13:34N 40°45' E 013°56'1610.9
2014-Jul-29 12:04N 40°50' E 014°17'1222.7
2014-Jul-29 11:34N 40°46' E 014°02'8 8.1
2014-Jul-29 10:33N 40°44' E 013°52'9 9.3
2014-Jul-29 09:34N 40°46' E 014°04'10 9.8
2014-Jul-29 08:30N 40°50' E 014°16'1616.6
2014-Jul-29 07:34N 40°45' E 013°57'1211.5
2014-Jul-29 06:33N 40°47' E 014°12'4 3.8
2014-Jul-29 05:34N 40°46' E 014°07'1211.6
2014-Jul-29 04:34N 40°44' E 013°52'0 0.0
2014-Jul-28 16:34N 40°45' E 013°52'2016.6
2014-Jul-28 15:22N 40°50' E 014°17'2024.6
2014-Jul-28 14:33N 40°45' E 013°52'4 3.6
2014-Jul-28 13:34N 40°45' E 013°56'1611.2
2014-Jul-28 12:07N 40°50' E 014°17'1323.0
2014-Jul-28 11:33N 40°44' E 014°01'7 7.0
2014-Jul-28 10:34N 40°46' E 013°52'15 7.6
2014-Jul-28 08:33N 40°47' E 014°12'1616.1
2014-Jul-28 07:33N 40°44' E 013°52'2013.8
2014-Jul-28 06:07N 40°50' E 014°17'1221.4
2014-Jul-28 05:34N 40°46' E 014°01'8 7.7
2014-Jul-28 04:33N 40°44' E 013°52'0 0.0
2014-Jul-27 19:32N 40°44' E 013°52'2015.1
2014-Jul-27 18:13N 40°50' E 014°17'1421.1
2014-Jul-27 17:34N 40°44' E 014°00'1 0.7
2014-Jul-27 16:34N 40°44' E 014°01'1312.8
2014-Jul-27 15:32N 40°50' E 014°17'2020.1
2014-Jul-27 14:33N 40°45' E 013°52'4 4.3
2014-Jul-27 13:34N 40°45' E 013°57'1612.1
2014-Jul-27 12:16N 40°50' E 014°17'1520.9
2014-Jul-27 11:34N 40°44' E 013°58'5 5.2
2014-Jul-27 10:34N 40°44' E 013°52'1312.8
2014-Jul-27 09:34N 40°47' E 014°08'7 6.4
2014-Jul-27 08:29N 40°50' E 014°16'1617.2
2014-Jul-27 07:34N 40°45' E 013°56'4 3.6
2014-Jul-27 06:33N 40°44' E 013°52'4 0.4
2014-Jul-26 18:34N 40°45' E 013°57'1414.4
2014-Jul-26 17:33N 40°49' E 014°16'1818.4
2014-Jul-26 16:34N 40°46' E 013°52'1916.5
2014-Jul-26 15:23N 40°50' E 014°17'2023.9
2014-Jul-26 14:33N 40°45' E 013°52'4 3.7
2014-Jul-26 13:34N 40°45' E 013°56'1611.6
2014-Jul-26 12:10N 40°50' E 014°16'1321.7
2014-Jul-26 11:34N 40°44' E 014°00'7 6.7
2014-Jul-26 10:33N 40°44' E 013°52'1413.7
2014-Jul-26 09:34N 40°46' E 014°09'5 5.0
2014-Jul-26 08:33N 40°48' E 014°16'1818.4
2014-Jul-26 07:34N 40°45' E 013°52'1717.0
2014-Jul-26 06:33N 40°48' E 014°14'7 7.2
2014-Jul-26 05:34N 40°45' E 014°05'1010.2
2014-Jul-26 04:33N 40°44' E 013°52'0 0.0
2014-Jul-25 19:09N 40°44' E 013°52'1219.9
2014-Jul-25 18:34N 40°46' E 014°07'3 2.8
2014-Jul-25 17:34N 40°47' E 014°11'1212.2
2014-Jul-25 16:34N 40°46' E 013°54'1713.9
2014-Jul-25 15:20N 40°50' E 014°16'1924.8
2014-Jul-25 14:34N 40°45' E 013°51'4 3.7
2014-Jul-25 13:34N 40°45' E 013°56'1610.7
2014-Jul-25 12:04N 40°50' E 014°16'1121.4
2014-Jul-25 11:34N 40°46' E 014°02'8 8.5
2014-Jul-25 10:33N 40°44' E 013°52'7 7.2
2014-Jul-25 09:34N 40°46' E 014°01'1210.0
2014-Jul-25 08:19N 40°50' E 014°16'1824.0
2014-Jul-25 07:33N 40°46' E 013°53'1817.8
2014-Jul-25 06:31N 40°49' E 014°17'1010.6
2014-Jul-25 05:34N 40°46' E 014°04'9 9.3
2014-Jul-25 04:33N 40°44' E 013°52'1 0.0
2014-Jul-24 16:33N 40°45' E 013°51'1916.2
2014-Jul-24 15:21N 40°50' E 014°16'1924.3
2014-Jul-24 14:34N 40°45' E 013°51'4 3.7
2014-Jul-24 13:33N 40°45' E 013°56'1611.2
2014-Jul-24 12:07N 40°50' E 014°16'1322.6
2014-Jul-24 11:34N 40°46' E 014°00'7 6.9
2014-Jul-24 10:33N 40°44' E 013°52'1110.7
2014-Jul-24 09:34N 40°46' E 014°05'9 8.7
2014-Jul-24 08:31N 40°50' E 014°16'1717.4
2014-Jul-24 07:34N 40°46' E 013°55'1414.2
2014-Jul-24 06:33N 40°48' E 014°14'7 7.2
2014-Jul-24 05:34N 40°46' E 014°05'1010.1
2014-Jul-24 04:33N 40°44' E 013°52'0 0.0
2014-Jul-23 17:04N 40°44' E 013°52'0 0.0
2014-Jul-23 16:33N 40°44' E 013°52'2016.5
2014-Jul-23 15:22N 40°50' E 014°16'2024.0
2014-Jul-23 14:34N 40°45' E 013°52'4 3.6
2014-Jul-23 13:33N 40°45' E 013°56'1610.9
2014-Jul-23 12:05N 40°50' E 014°16'1121.6
2014-Jul-23 11:34N 40°46' E 014°02'8 8.1
2014-Jul-23 10:33N 40°44' E 013°52'1010.4
2014-Jul-23 09:33N 40°46' E 014°05'9 9.3
2014-Jul-23 08:33N 40°50' E 014°17'1616.3
2014-Jul-23 07:34N 40°45' E 013°56'1111.3
2014-Jul-23 06:33N 40°47' E 014°11'3 2.8
2014-Jul-23 05:34N 40°46' E 014°08'1212.2
2014-Jul-23 04:33N 40°44' E 013°52'4 0.3
2014-Jul-22 14:21N 40°45' E 013°56'0 0.1
2014-Jul-22 13:34N 40°45' E 013°56'1611.2
2014-Jul-22 12:08N 40°50' E 014°16'1221.8
2014-Jul-22 11:34N 40°44' E 014°02'4 3.9
2014-Jul-22 10:33N 40°45' E 013°56'1515.1
2014-Jul-22 09:33N 40°49' E 014°16'7 6.9
2014-Jul-22 08:33N 40°46' E 014°07'1211.9
2014-Jul-22 07:32N 40°44' E 013°52'10 4.8
2014-Jul-22 05:34N 40°45' E 014°04'10 9.6
2014-Jul-22 04:33N 40°44' E 013°52'2 0.2
2014-Jul-21 16:34N 40°46' E 013°53'1815.3
2014-Jul-21 15:24N 40°50' E 014°16'1922.9
2014-Jul-21 14:33N 40°45' E 013°52'4 3.6
2014-Jul-21 13:33N 40°45' E 013°56'1611.6
2014-Jul-21 12:11N 40°50' E 014°16'1320.3
2014-Jul-21 11:34N 40°46' E 014°00'7 6.8
2014-Jul-21 10:34N 40°44' E 013°52'1414.1
2014-Jul-21 09:34N 40°47' E 014°10'5 4.7
2014-Jul-21 08:34N 40°48' E 014°16'1918.7
2014-Jul-21 07:34N 40°45' E 013°51'2019.6
2014-Jul-21 06:33N 40°49' E 014°17'1111.3
2014-Jul-21 05:34N 40°46' E 014°02'8 8.4
2014-Jul-21 04:33N 40°44' E 013°52'0 0.0
2014-Jul-20 19:33N 40°44' E 013°52'1818.5
2014-Jul-20 18:34N 40°48' E 014°15'1110.8
2014-Jul-20 17:34N 40°45' E 014°02'0 0.2
2014-Jul-20 16:33N 40°44' E 014°02'1212.4
2014-Jul-20 15:34N 40°50' E 014°16'2019.2
2014-Jul-20 14:32N 40°44' E 013°52'4 3.7
2014-Jul-20 13:33N 40°45' E 013°56'1515.4
2014-Jul-20 12:34N 40°50' E 014°15'1413.5
2014-Jul-20 11:33N 40°44' E 013°59'6 5.9
2014-Jul-20 10:33N 40°44' E 013°52'1010.3
2014-Jul-20 09:33N 40°45' E 014°05'10 8.6
2014-Jul-20 08:26N 40°50' E 014°16'1618.2
2014-Jul-20 07:34N 40°45' E 013°56'4 3.6
2014-Jul-20 06:33N 40°44' E 013°52'5 0.4
2014-Jul-19 18:34N 40°45' E 013°58'1413.6
2014-Jul-19 17:33N 40°48' E 014°15'  

Dump ship's entire track history